sensor_id;sensor_type;location;lat;lon;timestamp;P1;durP1;ratioP1;P2;durP2;ratioP2
13477;SDS011;12598;62.382;17.344;2023-08-12T00:00:15;2.53;;;0.90;;
13477;SDS011;12598;62.382;17.344;2023-08-12T00:01:19;1.35;;;0.80;;
13477;SDS011;12598;62.382;17.344;2023-08-12T00:02:23;1.42;;;1.13;;
13477;SDS011;12598;62.382;17.344;2023-08-12T00:03:25;1.20;;;1.10;;
13477;SDS011;12598;62.382;17.344;2023-08-12T00:04:27;0.93;;;0.90;;
13477;SDS011;12598;62.382;17.344;2023-08-12T00:05:29;2.38;;;1.13;;
13477;SDS011;12598;62.382;17.344;2023-08-12T00:06:31;0.80;;;0.80;;
13477;SDS011;12598;62.382;17.344;2023-08-12T00:07:33;1.05;;;0.88;;
13477;SDS011;12598;62.382;17.344;2023-08-12T00:08:36;1.05;;;0.88;;
13477;SDS011;12598;62.382;17.344;2023-08-12T00:09:37;1.48;;;0.80;;
13477;SDS011;12598;62.382;17.344;2023-08-12T00:10:39;0.85;;;0.80;;
13477;SDS011;12598;62.382;17.344;2023-08-12T00:11:41;0.95;;;0.90;;
13477;SDS011;12598;62.382;17.344;2023-08-12T00:12:43;0.98;;;0.80;;
13477;SDS011;12598;62.382;17.344;2023-08-12T00:13:45;1.13;;;0.80;;
13477;SDS011;12598;62.382;17.344;2023-08-12T00:14:47;0.80;;;0.80;;
13477;SDS011;12598;62.382;17.344;2023-08-12T00:15:49;1.27;;;1.00;;
13477;SDS011;12598;62.382;17.344;2023-08-12T00:16:51;0.95;;;0.68;;
13477;SDS011;12598;62.382;17.344;2023-08-12T00:17:53;0.80;;;0.80;;
13477;SDS011;12598;62.382;17.344;2023-08-12T00:18:55;0.70;;;0.70;;
13477;SDS011;12598;62.382;17.344;2023-08-12T00:19:57;1.73;;;0.90;;
13477;SDS011;12598;62.382;17.344;2023-08-12T00:20:59;2.42;;;1.13;;
13477;SDS011;12598;62.382;17.344;2023-08-12T00:22:01;1.30;;;0.90;;
13477;SDS011;12598;62.382;17.344;2023-08-12T00:23:03;1.08;;;0.77;;
13477;SDS011;12598;62.382;17.344;2023-08-12T00:24:06;1.17;;;0.80;;
13477;SDS011;12598;62.382;17.344;2023-08-12T00:25:08;1.83;;;0.80;;
13477;SDS011;12598;62.382;17.344;2023-08-12T00:26:10;1.02;;;0.90;;
13477;SDS011;12598;62.382;17.344;2023-08-12T00:27:12;3.28;;;0.80;;
13477;SDS011;12598;62.382;17.344;2023-08-12T00:28:14;2.08;;;0.80;;
13477;SDS011;12598;62.382;17.344;2023-08-12T00:29:16;0.82;;;0.82;;
13477;SDS011;12598;62.382;17.344;2023-08-12T00:30:18;1.52;;;1.17;;
13477;SDS011;12598;62.382;17.344;2023-08-12T00:31:20;3.05;;;1.27;;
13477;SDS011;12598;62.382;17.344;2023-08-12T00:32:22;2.70;;;0.82;;
13477;SDS011;12598;62.382;17.344;2023-08-12T00:33:24;2.25;;;0.93;;
13477;SDS011;12598;62.382;17.344;2023-08-12T00:34:26;0.95;;;0.85;;
13477;SDS011;12598;62.382;17.344;2023-08-12T00:35:28;1.75;;;0.90;;
13477;SDS011;12598;62.382;17.344;2023-08-12T00:36:30;2.10;;;0.68;;
13477;SDS011;12598;62.382;17.344;2023-08-12T00:37:32;1.27;;;0.93;;
13477;SDS011;12598;62.382;17.344;2023-08-12T00:38:34;0.88;;;0.80;;
13477;SDS011;12598;62.382;17.344;2023-08-12T00:39:36;1.45;;;0.90;;
13477;SDS011;12598;62.382;17.344;2023-08-12T00:40:38;0.90;;;0.90;;
13477;SDS011;12598;62.382;17.344;2023-08-12T00:41:39;6.07;;;1.48;;
13477;SDS011;12598;62.382;17.344;2023-08-12T00:42:41;3.72;;;1.05;;
13477;SDS011;12598;62.382;17.344;2023-08-12T00:43:43;1.15;;;1.00;;
13477;SDS011;12598;62.382;17.344;2023-08-12T00:44:45;1.73;;;0.70;;
13477;SDS011;12598;62.382;17.344;2023-08-12T00:45:47;1.58;;;0.60;;
13477;SDS011;12598;62.382;17.344;2023-08-12T00:46:50;1.63;;;0.90;;
13477;SDS011;12598;62.382;17.344;2023-08-12T00:47:52;1.05;;;0.73;;
13477;SDS011;12598;62.382;17.344;2023-08-12T00:48:55;0.93;;;0.70;;
13477;SDS011;12598;62.382;17.344;2023-08-12T00:49:59;1.52;;;1.00;;
13477;SDS011;12598;62.382;17.344;2023-08-12T00:51:01;1.75;;;0.80;;
13477;SDS011;12598;62.382;17.344;2023-08-12T00:52:03;0.70;;;0.68;;
13477;SDS011;12598;62.382;17.344;2023-08-12T00:53:05;2.33;;;0.80;;
13477;SDS011;12598;62.382;17.344;2023-08-12T00:54:08;1.10;;;0.88;;
13477;SDS011;12598;62.382;17.344;2023-08-12T00:55:14;1.13;;;0.90;;
13477;SDS011;12598;62.382;17.344;2023-08-12T00:56:17;1.20;;;0.68;;
13477;SDS011;12598;62.382;17.344;2023-08-12T00:57:19;1.20;;;0.90;;
13477;SDS011;12598;62.382;17.344;2023-08-12T00:58:22;0.82;;;0.77;;
13477;SDS011;12598;62.382;17.344;2023-08-12T00:59:24;1.45;;;1.00;;
13477;SDS011;12598;62.382;17.344;2023-08-12T01:00:27;0.75;;;0.75;;
13477;SDS011;12598;62.382;17.344;2023-08-12T01:01:29;1.50;;;0.75;;
13477;SDS011;12598;62.382;17.344;2023-08-12T01:02:31;0.77;;;0.70;;
13477;SDS011;12598;62.382;17.344;2023-08-12T01:03:34;0.73;;;0.60;;
13477;SDS011;12598;62.382;17.344;2023-08-12T01:04:36;1.15;;;0.82;;
13477;SDS011;12598;62.382;17.344;2023-08-12T01:05:38;0.80;;;0.80;;
13477;SDS011;12598;62.382;17.344;2023-08-12T01:06:43;1.20;;;0.63;;
13477;SDS011;12598;62.382;17.344;2023-08-12T01:07:46;0.82;;;0.82;;
13477;SDS011;12598;62.382;17.344;2023-08-12T01:08:49;0.93;;;0.82;;
13477;SDS011;12598;62.382;17.344;2023-08-12T01:09:52;0.82;;;0.80;;
13477;SDS011;12598;62.382;17.344;2023-08-12T01:10:56;0.80;;;0.80;;
13477;SDS011;12598;62.382;17.344;2023-08-12T01:12:26;1.45;;;0.90;;
13477;SDS011;12598;62.382;17.344;2023-08-12T01:13:43;2.85;;;0.90;;
13477;SDS011;12598;62.382;17.344;2023-08-12T01:14:48;1.75;;;0.80;;
13477;SDS011;12598;62.382;17.344;2023-08-12T01:15:56;1.73;;;0.85;;
13477;SDS011;12598;62.382;17.344;2023-08-12T01:17:03;0.57;;;0.52;;
13477;SDS011;12598;62.382;17.344;2023-08-12T01:18:08;2.58;;;0.70;;
13477;SDS011;12598;62.382;17.344;2023-08-12T01:19:21;2.17;;;0.68;;
13477;SDS011;12598;62.382;17.344;2023-08-12T01:20:31;2.60;;;1.08;;
13477;SDS011;12598;62.382;17.344;2023-08-12T01:21:33;1.83;;;0.90;;
13477;SDS011;12598;62.382;17.344;2023-08-12T01:22:43;1.27;;;0.77;;
13477;SDS011;12598;62.382;17.344;2023-08-12T01:23:47;1.80;;;0.93;;
13477;SDS011;12598;62.382;17.344;2023-08-12T01:24:51;2.15;;;0.73;;
13477;SDS011;12598;62.382;17.344;2023-08-12T01:25:53;0.80;;;0.80;;
13477;SDS011;12598;62.382;17.344;2023-08-12T01:26:55;1.08;;;0.80;;
13477;SDS011;12598;62.382;17.344;2023-08-12T01:27:57;0.63;;;0.60;;
13477;SDS011;12598;62.382;17.344;2023-08-12T01:28:59;0.57;;;0.57;;
13477;SDS011;12598;62.382;17.344;2023-08-12T01:30:00;0.82;;;0.80;;
13477;SDS011;12598;62.382;17.344;2023-08-12T01:31:12;2.35;;;0.80;;
13477;SDS011;12598;62.382;17.344;2023-08-12T01:32:24;1.95;;;0.70;;
13477;SDS011;12598;62.382;17.344;2023-08-12T01:33:39;1.58;;;0.50;;
13477;SDS011;12598;62.382;17.344;2023-08-12T01:36:12;0.75;;;0.70;;
13477;SDS011;12598;62.382;17.344;2023-08-12T01:37:22;1.25;;;0.70;;
13477;SDS011;12598;62.382;17.344;2023-08-12T01:38:26;1.63;;;1.00;;
13477;SDS011;12598;62.382;17.344;2023-08-12T01:39:30;0.70;;;0.70;;
13477;SDS011;12598;62.382;17.344;2023-08-12T01:40:32;2.53;;;0.73;;
13477;SDS011;12598;62.382;17.344;2023-08-12T01:41:35;0.80;;;0.80;;
13477;SDS011;12598;62.382;17.344;2023-08-12T01:42:38;1.17;;;0.57;;
13477;SDS011;12598;62.382;17.344;2023-08-12T01:43:42;0.73;;;0.70;;
13477;SDS011;12598;62.382;17.344;2023-08-12T01:44:44;5.57;;;1.27;;
13477;SDS011;12598;62.382;17.344;2023-08-12T01:45:46;0.60;;;0.60;;
13477;SDS011;12598;62.382;17.344;2023-08-12T01:46:48;3.20;;;1.00;;
13477;SDS011;12598;62.382;17.344;2023-08-12T01:47:52;0.90;;;0.77;;
13477;SDS011;12598;62.382;17.344;2023-08-12T01:48:55;2.33;;;0.77;;
13477;SDS011;12598;62.382;17.344;2023-08-12T01:49:58;1.02;;;0.68;;
13477;SDS011;12598;62.382;17.344;2023-08-12T01:51:00;0.60;;;0.60;;
13477;SDS011;12598;62.382;17.344;2023-08-12T01:52:02;1.70;;;0.73;;
13477;SDS011;12598;62.382;17.344;2023-08-12T01:53:04;1.52;;;0.80;;
13477;SDS011;12598;62.382;17.344;2023-08-12T01:54:06;1.35;;;0.93;;
13477;SDS011;12598;62.382;17.344;2023-08-12T01:55:08;1.02;;;0.93;;
13477;SDS011;12598;62.382;17.344;2023-08-12T01:56:10;0.60;;;0.60;;
13477;SDS011;12598;62.382;17.344;2023-08-12T01:57:12;1.10;;;1.00;;
13477;SDS011;12598;62.382;17.344;2023-08-12T01:58:14;2.10;;;0.70;;
13477;SDS011;12598;62.382;17.344;2023-08-12T01:59:16;2.40;;;0.80;;
13477;SDS011;12598;62.382;17.344;2023-08-12T02:00:18;1.13;;;0.90;;
13477;SDS011;12598;62.382;17.344;2023-08-12T02:01:20;0.70;;;0.60;;
13477;SDS011;12598;62.382;17.344;2023-08-12T02:02:22;1.17;;;0.80;;
13477;SDS011;12598;62.382;17.344;2023-08-12T02:03:24;1.55;;;0.70;;
13477;SDS011;12598;62.382;17.344;2023-08-12T02:04:26;1.63;;;0.80;;
13477;SDS011;12598;62.382;17.344;2023-08-12T02:05:29;0.85;;;0.85;;
13477;SDS011;12598;62.382;17.344;2023-08-12T02:06:31;1.33;;;0.90;;
13477;SDS011;12598;62.382;17.344;2023-08-12T02:07:33;1.30;;;0.70;;
13477;SDS011;12598;62.382;17.344;2023-08-12T02:08:35;1.83;;;0.80;;
13477;SDS011;12598;62.382;17.344;2023-08-12T02:09:37;2.20;;;0.98;;
13477;SDS011;12598;62.382;17.344;2023-08-12T02:10:39;1.60;;;0.77;;
13477;SDS011;12598;62.382;17.344;2023-08-12T02:11:41;0.93;;;0.90;;
13477;SDS011;12598;62.382;17.344;2023-08-12T02:12:43;0.90;;;0.80;;
13477;SDS011;12598;62.382;17.344;2023-08-12T02:13:45;0.88;;;0.60;;
13477;SDS011;12598;62.382;17.344;2023-08-12T02:14:47;3.80;;;1.15;;
13477;SDS011;12598;62.382;17.344;2023-08-12T02:15:49;0.98;;;0.68;;
13477;SDS011;12598;62.382;17.344;2023-08-12T02:16:51;2.88;;;0.80;;
13477;SDS011;12598;62.382;17.344;2023-08-12T02:17:55;2.00;;;0.80;;
13477;SDS011;12598;62.382;17.344;2023-08-12T02:18:57;2.15;;;0.88;;
13477;SDS011;12598;62.382;17.344;2023-08-12T02:19:59;1.65;;;0.98;;
13477;SDS011;12598;62.382;17.344;2023-08-12T02:21:01;1.10;;;0.70;;
13477;SDS011;12598;62.382;17.344;2023-08-12T02:22:03;1.98;;;0.93;;
13477;SDS011;12598;62.382;17.344;2023-08-12T02:23:05;0.77;;;0.75;;
13477;SDS011;12598;62.382;17.344;2023-08-12T02:24:08;1.70;;;0.70;;
13477;SDS011;12598;62.382;17.344;2023-08-12T02:25:11;0.85;;;0.80;;
13477;SDS011;12598;62.382;17.344;2023-08-12T02:26:13;0.60;;;0.60;;
13477;SDS011;12598;62.382;17.344;2023-08-12T02:27:15;2.33;;;0.80;;
13477;SDS011;12598;62.382;17.344;2023-08-12T02:28:17;0.77;;;0.68;;
13477;SDS011;12598;62.382;17.344;2023-08-12T02:29:19;1.52;;;0.80;;
13477;SDS011;12598;62.382;17.344;2023-08-12T02:30:21;1.00;;;0.90;;
13477;SDS011;12598;62.382;17.344;2023-08-12T02:31:23;0.80;;;0.68;;
13477;SDS011;12598;62.382;17.344;2023-08-12T02:32:25;1.75;;;0.82;;
13477;SDS011;12598;62.382;17.344;2023-08-12T02:33:27;1.35;;;0.95;;
13477;SDS011;12598;62.382;17.344;2023-08-12T02:34:29;0.75;;;0.70;;
13477;SDS011;12598;62.382;17.344;2023-08-12T02:35:32;0.90;;;0.90;;
13477;SDS011;12598;62.382;17.344;2023-08-12T02:36:34;1.45;;;0.88;;
13477;SDS011;12598;62.382;17.344;2023-08-12T02:37:35;0.73;;;0.70;;
13477;SDS011;12598;62.382;17.344;2023-08-12T02:38:37;1.60;;;0.90;;
13477;SDS011;12598;62.382;17.344;2023-08-12T02:39:39;1.95;;;0.85;;
13477;SDS011;12598;62.382;17.344;2023-08-12T02:40:41;1.38;;;0.70;;
13477;SDS011;12598;62.382;17.344;2023-08-12T02:41:44;1.13;;;0.80;;
13477;SDS011;12598;62.382;17.344;2023-08-12T02:42:46;2.15;;;0.82;;
13477;SDS011;12598;62.382;17.344;2023-08-12T02:43:48;4.65;;;1.00;;
13477;SDS011;12598;62.382;17.344;2023-08-12T02:44:50;0.77;;;0.77;;
13477;SDS011;12598;62.382;17.344;2023-08-12T02:45:52;0.82;;;0.60;;
13477;SDS011;12598;62.382;17.344;2023-08-12T02:46:54;0.52;;;0.50;;
13477;SDS011;12598;62.382;17.344;2023-08-12T02:47:56;0.80;;;0.70;;
13477;SDS011;12598;62.382;17.344;2023-08-12T02:48:58;0.93;;;0.60;;
13477;SDS011;12598;62.382;17.344;2023-08-12T02:49:59;1.30;;;0.43;;
13477;SDS011;12598;62.382;17.344;2023-08-12T02:51:01;1.60;;;0.70;;
13477;SDS011;12598;62.382;17.344;2023-08-12T02:52:03;0.63;;;0.60;;
13477;SDS011;12598;62.382;17.344;2023-08-12T02:53:06;0.63;;;0.50;;
13477;SDS011;12598;62.382;17.344;2023-08-12T02:54:08;0.60;;;0.60;;
13477;SDS011;12598;62.382;17.344;2023-08-12T02:55:10;1.52;;;0.60;;
13477;SDS011;12598;62.382;17.344;2023-08-12T02:56:12;1.55;;;0.70;;
13477;SDS011;12598;62.382;17.344;2023-08-12T02:57:14;0.82;;;0.60;;
13477;SDS011;12598;62.382;17.344;2023-08-12T02:58:16;0.60;;;0.60;;
13477;SDS011;12598;62.382;17.344;2023-08-12T02:59:18;0.90;;;0.80;;
13477;SDS011;12598;62.382;17.344;2023-08-12T03:00:20;0.60;;;0.60;;
13477;SDS011;12598;62.382;17.344;2023-08-12T03:01:23;0.57;;;0.50;;
13477;SDS011;12598;62.382;17.344;2023-08-12T03:02:26;1.27;;;0.70;;
13477;SDS011;12598;62.382;17.344;2023-08-12T03:03:28;0.63;;;0.63;;
13477;SDS011;12598;62.382;17.344;2023-08-12T03:04:30;1.08;;;0.63;;
13477;SDS011;12598;62.382;17.344;2023-08-12T03:05:32;0.88;;;0.75;;
13477;SDS011;12598;62.382;17.344;2023-08-12T03:06:34;0.90;;;0.80;;
13477;SDS011;12598;62.382;17.344;2023-08-12T03:07:36;1.88;;;0.90;;
13477;SDS011;12598;62.382;17.344;2023-08-12T03:08:38;0.63;;;0.63;;
13477;SDS011;12598;62.382;17.344;2023-08-12T03:09:41;0.70;;;0.70;;
13477;SDS011;12598;62.382;17.344;2023-08-12T03:10:44;0.85;;;0.70;;
13477;SDS011;12598;62.382;17.344;2023-08-12T03:11:48;2.58;;;0.80;;
13477;SDS011;12598;62.382;17.344;2023-08-12T03:12:50;0.68;;;0.65;;
13477;SDS011;12598;62.382;17.344;2023-08-12T03:13:53;0.70;;;0.60;;
13477;SDS011;12598;62.382;17.344;2023-08-12T03:14:58;0.60;;;0.60;;
13477;SDS011;12598;62.382;17.344;2023-08-12T03:16:01;0.50;;;0.47;;
13477;SDS011;12598;62.382;17.344;2023-08-12T03:17:03;0.70;;;0.60;;
13477;SDS011;12598;62.382;17.344;2023-08-12T03:18:06;2.85;;;0.70;;
13477;SDS011;12598;62.382;17.344;2023-08-12T03:19:09;1.02;;;0.70;;
13477;SDS011;12598;62.382;17.344;2023-08-12T03:20:11;1.30;;;0.60;;
13477;SDS011;12598;62.382;17.344;2023-08-12T03:21:13;0.85;;;0.80;;
13477;SDS011;12598;62.382;17.344;2023-08-12T03:22:15;0.88;;;0.60;;
13477;SDS011;12598;62.382;17.344;2023-08-12T03:23:17;1.42;;;0.60;;
13477;SDS011;12598;62.382;17.344;2023-08-12T03:24:19;1.23;;;0.88;;
13477;SDS011;12598;62.382;17.344;2023-08-12T03:25:22;1.35;;;0.90;;
13477;SDS011;12598;62.382;17.344;2023-08-12T03:26:24;0.80;;;0.60;;
13477;SDS011;12598;62.382;17.344;2023-08-12T03:27:28;1.38;;;0.90;;
13477;SDS011;12598;62.382;17.344;2023-08-12T03:28:30;1.88;;;1.02;;
13477;SDS011;12598;62.382;17.344;2023-08-12T03:29:32;1.23;;;0.98;;
13477;SDS011;12598;62.382;17.344;2023-08-12T03:30:35;2.90;;;0.70;;
13477;SDS011;12598;62.382;17.344;2023-08-12T03:31:37;1.52;;;0.90;;
13477;SDS011;12598;62.382;17.344;2023-08-12T03:32:39;0.65;;;0.60;;
13477;SDS011;12598;62.382;17.344;2023-08-12T03:33:41;2.65;;;0.75;;
13477;SDS011;12598;62.382;17.344;2023-08-12T03:34:43;1.05;;;0.75;;
13477;SDS011;12598;62.382;17.344;2023-08-12T03:35:46;1.25;;;0.70;;
13477;SDS011;12598;62.382;17.344;2023-08-12T03:36:49;1.67;;;0.70;;
13477;SDS011;12598;62.382;17.344;2023-08-12T03:37:53;0.90;;;0.80;;
13477;SDS011;12598;62.382;17.344;2023-08-12T03:38:56;1.77;;;0.70;;
13477;SDS011;12598;62.382;17.344;2023-08-12T03:40:01;1.90;;;0.60;;
13477;SDS011;12598;62.382;17.344;2023-08-12T03:41:03;0.70;;;0.68;;
13477;SDS011;12598;62.382;17.344;2023-08-12T03:42:07;1.65;;;0.55;;
13477;SDS011;12598;62.382;17.344;2023-08-12T03:43:09;2.15;;;0.70;;
13477;SDS011;12598;62.382;17.344;2023-08-12T03:44:12;1.38;;;0.70;;
13477;SDS011;12598;62.382;17.344;2023-08-12T03:45:14;1.45;;;0.52;;
13477;SDS011;12598;62.382;17.344;2023-08-12T03:46:16;1.23;;;0.70;;
13477;SDS011;12598;62.382;17.344;2023-08-12T03:47:19;2.67;;;0.85;;
13477;SDS011;12598;62.382;17.344;2023-08-12T03:48:25;0.98;;;0.60;;
13477;SDS011;12598;62.382;17.344;2023-08-12T03:49:28;0.95;;;0.65;;
13477;SDS011;12598;62.382;17.344;2023-08-12T03:50:32;0.70;;;0.70;;
13477;SDS011;12598;62.382;17.344;2023-08-12T03:51:37;1.45;;;0.60;;
13477;SDS011;12598;62.382;17.344;2023-08-12T03:52:39;1.60;;;0.60;;
13477;SDS011;12598;62.382;17.344;2023-08-12T03:53:42;1.55;;;0.63;;
13477;SDS011;12598;62.382;17.344;2023-08-12T03:54:44;1.35;;;0.70;;
13477;SDS011;12598;62.382;17.344;2023-08-12T03:55:46;1.77;;;0.60;;
13477;SDS011;12598;62.382;17.344;2023-08-12T03:56:50;0.80;;;0.80;;
13477;SDS011;12598;62.382;17.344;2023-08-12T03:57:52;0.52;;;0.52;;
13477;SDS011;12598;62.382;17.344;2023-08-12T03:58:54;0.98;;;0.57;;
13477;SDS011;12598;62.382;17.344;2023-08-12T03:59:57;1.25;;;0.90;;
13477;SDS011;12598;62.382;17.344;2023-08-12T04:00:59;0.70;;;0.68;;
13477;SDS011;12598;62.382;17.344;2023-08-12T04:02:02;1.90;;;0.60;;
13477;SDS011;12598;62.382;17.344;2023-08-12T04:03:05;1.23;;;0.77;;
13477;SDS011;12598;62.382;17.344;2023-08-12T04:04:07;0.70;;;0.68;;
13477;SDS011;12598;62.382;17.344;2023-08-12T04:05:13;1.60;;;0.63;;
13477;SDS011;12598;62.382;17.344;2023-08-12T04:06:15;1.13;;;0.70;;
13477;SDS011;12598;62.382;17.344;2023-08-12T04:07:17;1.08;;;0.80;;
13477;SDS011;12598;62.382;17.344;2023-08-12T04:08:19;1.00;;;0.90;;
13477;SDS011;12598;62.382;17.344;2023-08-12T04:09:22;1.02;;;0.80;;
13477;SDS011;12598;62.382;17.344;2023-08-12T04:10:24;0.75;;;0.60;;
13477;SDS011;12598;62.382;17.344;2023-08-12T04:11:27;1.17;;;0.85;;
13477;SDS011;12598;62.382;17.344;2023-08-12T04:12:29;0.98;;;0.77;;
13477;SDS011;12598;62.382;17.344;2023-08-12T04:13:31;0.75;;;0.75;;
13477;SDS011;12598;62.382;17.344;2023-08-12T04:14:33;1.10;;;0.70;;
13477;SDS011;12598;62.382;17.344;2023-08-12T04:15:35;1.85;;;0.80;;
13477;SDS011;12598;62.382;17.344;2023-08-12T04:16:37;1.55;;;0.85;;
13477;SDS011;12598;62.382;17.344;2023-08-12T04:17:38;1.75;;;0.90;;
13477;SDS011;12598;62.382;17.344;2023-08-12T04:18:43;0.80;;;0.80;;
13477;SDS011;12598;62.382;17.344;2023-08-12T04:19:45;1.05;;;0.90;;
13477;SDS011;12598;62.382;17.344;2023-08-12T04:20:51;1.90;;;1.02;;
13477;SDS011;12598;62.382;17.344;2023-08-12T04:21:54;1.75;;;1.00;;
13477;SDS011;12598;62.382;17.344;2023-08-12T04:22:56;1.35;;;0.75;;
13477;SDS011;12598;62.382;17.344;2023-08-12T04:23:57;1.40;;;0.90;;
13477;SDS011;12598;62.382;17.344;2023-08-12T04:25:00;1.10;;;0.98;;
13477;SDS011;12598;62.382;17.344;2023-08-12T04:26:01;1.00;;;0.63;;
13477;SDS011;12598;62.382;17.344;2023-08-12T04:27:04;1.38;;;0.95;;
13477;SDS011;12598;62.382;17.344;2023-08-12T04:28:05;1.33;;;0.65;;
13477;SDS011;12598;62.382;17.344;2023-08-12T04:29:08;1.00;;;0.90;;
13477;SDS011;12598;62.382;17.344;2023-08-12T04:30:13;2.17;;;1.00;;
13477;SDS011;12598;62.382;17.344;2023-08-12T04:31:15;2.70;;;1.10;;
13477;SDS011;12598;62.382;17.344;2023-08-12T04:32:17;1.20;;;1.10;;
13477;SDS011;12598;62.382;17.344;2023-08-12T04:33:19;1.08;;;1.00;;
13477;SDS011;12598;62.382;17.344;2023-08-12T04:34:22;1.60;;;1.10;;
13477;SDS011;12598;62.382;17.344;2023-08-12T04:35:26;1.00;;;1.00;;
13477;SDS011;12598;62.382;17.344;2023-08-12T04:36:29;1.92;;;1.10;;
13477;SDS011;12598;62.382;17.344;2023-08-12T04:37:33;1.20;;;1.10;;
13477;SDS011;12598;62.382;17.344;2023-08-12T04:38:36;1.45;;;1.00;;
13477;SDS011;12598;62.382;17.344;2023-08-12T04:39:41;1.95;;;1.00;;
13477;SDS011;12598;62.382;17.344;2023-08-12T04:40:44;1.67;;;1.08;;
13477;SDS011;12598;62.382;17.344;2023-08-12T04:41:46;3.53;;;1.45;;
13477;SDS011;12598;62.382;17.344;2023-08-12T04:42:49;3.25;;;1.10;;
13477;SDS011;12598;62.382;17.344;2023-08-12T04:43:52;1.85;;;1.20;;
13477;SDS011;12598;62.382;17.344;2023-08-12T04:44:55;0.88;;;0.85;;
13477;SDS011;12598;62.382;17.344;2023-08-12T04:45:58;1.40;;;1.05;;
13477;SDS011;12598;62.382;17.344;2023-08-12T04:47:01;1.60;;;1.00;;
13477;SDS011;12598;62.382;17.344;2023-08-12T04:48:04;1.75;;;0.98;;
13477;SDS011;12598;62.382;17.344;2023-08-12T04:49:08;1.00;;;0.90;;
13477;SDS011;12598;62.382;17.344;2023-08-12T04:50:10;1.45;;;1.10;;
13477;SDS011;12598;62.382;17.344;2023-08-12T04:51:11;1.65;;;1.02;;
13477;SDS011;12598;62.382;17.344;2023-08-12T04:52:13;1.98;;;1.08;;
13477;SDS011;12598;62.382;17.344;2023-08-12T04:53:15;3.47;;;1.10;;
13477;SDS011;12598;62.382;17.344;2023-08-12T04:54:18;2.50;;;0.95;;
13477;SDS011;12598;62.382;17.344;2023-08-12T04:55:21;2.78;;;1.10;;
13477;SDS011;12598;62.382;17.344;2023-08-12T04:56:23;1.35;;;1.00;;
13477;SDS011;12598;62.382;17.344;2023-08-12T04:57:26;1.05;;;0.95;;
13477;SDS011;12598;62.382;17.344;2023-08-12T04:58:28;0.93;;;0.90;;
13477;SDS011;12598;62.382;17.344;2023-08-12T04:59:30;1.02;;;0.90;;
13477;SDS011;12598;62.382;17.344;2023-08-12T05:00:32;1.00;;;0.82;;
13477;SDS011;12598;62.382;17.344;2023-08-12T05:01:35;1.15;;;1.05;;
13477;SDS011;12598;62.382;17.344;2023-08-12T05:02:38;1.42;;;1.00;;
13477;SDS011;12598;62.382;17.344;2023-08-12T05:03:41;1.33;;;1.20;;
13477;SDS011;12598;62.382;17.344;2023-08-12T05:04:47;1.20;;;1.05;;
13477;SDS011;12598;62.382;17.344;2023-08-12T05:05:51;1.50;;;0.90;;
13477;SDS011;12598;62.382;17.344;2023-08-12T05:06:56;1.20;;;1.10;;
13477;SDS011;12598;62.382;17.344;2023-08-12T05:07:59;1.48;;;1.10;;
13477;SDS011;12598;62.382;17.344;2023-08-12T05:09:01;1.33;;;1.00;;
13477;SDS011;12598;62.382;17.344;2023-08-12T05:10:05;1.50;;;1.13;;
13477;SDS011;12598;62.382;17.344;2023-08-12T05:11:07;1.08;;;0.98;;
13477;SDS011;12598;62.382;17.344;2023-08-12T05:12:09;2.25;;;1.20;;
13477;SDS011;12598;62.382;17.344;2023-08-12T05:13:14;1.70;;;1.33;;
13477;SDS011;12598;62.382;17.344;2023-08-12T05:14:16;1.48;;;1.13;;
13477;SDS011;12598;62.382;17.344;2023-08-12T05:15:19;2.38;;;1.15;;
13477;SDS011;12598;62.382;17.344;2023-08-12T05:16:22;2.75;;;1.02;;
13477;SDS011;12598;62.382;17.344;2023-08-12T05:17:24;1.75;;;1.50;;
13477;SDS011;12598;62.382;17.344;2023-08-12T05:18:26;2.42;;;1.40;;
13477;SDS011;12598;62.382;17.344;2023-08-12T05:19:30;1.58;;;1.40;;
13477;SDS011;12598;62.382;17.344;2023-08-12T05:20:32;2.95;;;1.20;;
13477;SDS011;12598;62.382;17.344;2023-08-12T05:21:34;2.05;;;1.10;;
13477;SDS011;12598;62.382;17.344;2023-08-12T05:22:36;2.17;;;1.30;;
13477;SDS011;12598;62.382;17.344;2023-08-12T05:23:38;3.53;;;1.27;;
13477;SDS011;12598;62.382;17.344;2023-08-12T05:24:40;2.63;;;1.25;;
13477;SDS011;12598;62.382;17.344;2023-08-12T05:25:41;1.70;;;1.10;;
13477;SDS011;12598;62.382;17.344;2023-08-12T05:26:43;1.85;;;1.35;;
13477;SDS011;12598;62.382;17.344;2023-08-12T05:27:45;2.90;;;1.10;;
13477;SDS011;12598;62.382;17.344;2023-08-12T05:28:47;1.58;;;1.00;;
13477;SDS011;12598;62.382;17.344;2023-08-12T05:29:49;3.88;;;1.33;;
13477;SDS011;12598;62.382;17.344;2023-08-12T05:30:51;1.63;;;1.10;;
13477;SDS011;12598;62.382;17.344;2023-08-12T05:31:56;3.70;;;1.20;;
13477;SDS011;12598;62.382;17.344;2023-08-12T05:32:58;2.17;;;1.17;;
13477;SDS011;12598;62.382;17.344;2023-08-12T05:34:00;0.93;;;0.90;;
13477;SDS011;12598;62.382;17.344;2023-08-12T05:35:02;1.48;;;1.23;;
13477;SDS011;12598;62.382;17.344;2023-08-12T05:36:04;1.70;;;1.25;;
13477;SDS011;12598;62.382;17.344;2023-08-12T05:37:06;1.92;;;1.20;;
13477;SDS011;12598;62.382;17.344;2023-08-12T05:38:08;1.17;;;1.05;;
13477;SDS011;12598;62.382;17.344;2023-08-12T05:39:10;2.47;;;0.93;;
13477;SDS011;12598;62.382;17.344;2023-08-12T05:40:13;1.55;;;0.98;;
13477;SDS011;12598;62.382;17.344;2023-08-12T05:41:15;1.35;;;1.00;;
13477;SDS011;12598;62.382;17.344;2023-08-12T05:42:17;1.23;;;1.13;;
13477;SDS011;12598;62.382;17.344;2023-08-12T05:43:19;1.40;;;0.98;;
13477;SDS011;12598;62.382;17.344;2023-08-12T05:44:20;2.13;;;1.05;;
13477;SDS011;12598;62.382;17.344;2023-08-12T05:45:22;1.52;;;1.30;;
13477;SDS011;12598;62.382;17.344;2023-08-12T05:46:24;1.73;;;0.93;;
13477;SDS011;12598;62.382;17.344;2023-08-12T05:47:26;1.45;;;1.10;;
13477;SDS011;12598;62.382;17.344;2023-08-12T05:48:29;4.68;;;1.48;;
13477;SDS011;12598;62.382;17.344;2023-08-12T05:49:31;2.17;;;1.10;;
13477;SDS011;12598;62.382;17.344;2023-08-12T05:50:32;2.22;;;1.20;;
13477;SDS011;12598;62.382;17.344;2023-08-12T05:51:35;2.28;;;1.30;;
13477;SDS011;12598;62.382;17.344;2023-08-12T05:52:37;1.92;;;1.40;;
13477;SDS011;12598;62.382;17.344;2023-08-12T05:53:39;2.50;;;1.10;;
13477;SDS011;12598;62.382;17.344;2023-08-12T05:54:41;2.25;;;1.15;;
13477;SDS011;12598;62.382;17.344;2023-08-12T05:55:43;1.50;;;1.23;;
13477;SDS011;12598;62.382;17.344;2023-08-12T05:56:45;0.90;;;0.90;;
13477;SDS011;12598;62.382;17.344;2023-08-12T05:57:47;1.13;;;1.00;;
13477;SDS011;12598;62.382;17.344;2023-08-12T05:58:48;1.58;;;1.15;;
13477;SDS011;12598;62.382;17.344;2023-08-12T05:59:50;2.45;;;0.88;;
13477;SDS011;12598;62.382;17.344;2023-08-12T06:00:52;1.98;;;1.20;;
13477;SDS011;12598;62.382;17.344;2023-08-12T06:01:54;1.27;;;0.98;;
13477;SDS011;12598;62.382;17.344;2023-08-12T06:02:56;1.45;;;1.10;;
13477;SDS011;12598;62.382;17.344;2023-08-12T06:03:58;1.10;;;1.00;;
13477;SDS011;12598;62.382;17.344;2023-08-12T06:05:00;0.80;;;0.80;;
13477;SDS011;12598;62.382;17.344;2023-08-12T06:06:02;2.25;;;0.90;;
13477;SDS011;12598;62.382;17.344;2023-08-12T06:07:04;1.10;;;0.80;;
13477;SDS011;12598;62.382;17.344;2023-08-12T06:08:06;1.13;;;1.00;;
13477;SDS011;12598;62.382;17.344;2023-08-12T06:09:08;1.02;;;0.82;;
13477;SDS011;12598;62.382;17.344;2023-08-12T06:10:10;1.20;;;1.00;;
13477;SDS011;12598;62.382;17.344;2023-08-12T06:11:12;1.17;;;0.80;;
13477;SDS011;12598;62.382;17.344;2023-08-12T06:12:14;1.42;;;0.95;;
13477;SDS011;12598;62.382;17.344;2023-08-12T06:13:16;1.48;;;0.93;;